createdAt,value
2022-11-28T00:01:21.884Z,12.83
2022-11-28T00:03:48.964Z,12.43
2022-11-28T00:06:16.393Z,12.13
2022-11-28T00:08:43.477Z,11.80
2022-11-28T00:11:11.679Z,11.03
2022-11-28T00:13:38.648Z,11.17
2022-11-28T00:16:07.131Z,12.23
2022-11-28T00:18:34.300Z,11.37
2022-11-28T00:21:06.763Z,12.47
2022-11-28T00:23:33.949Z,12.67
2022-11-28T00:26:07.389Z,11.47
2022-11-28T00:28:34.407Z,11.77
2022-11-28T00:31:01.420Z,12.17
2022-11-28T00:33:28.191Z,12.20
2022-11-28T00:36:02.895Z,11.63
2022-11-28T00:38:30.176Z,11.13
2022-11-28T00:41:18.575Z,12.10
2022-11-28T00:43:47.187Z,11.57
2022-11-28T00:46:15.445Z,11.87
2022-11-28T00:48:42.678Z,11.80
2022-11-28T00:51:16.106Z,11.83
2022-11-28T00:53:44.257Z,12.20
2022-11-28T00:56:13.731Z,12.53
2022-11-28T00:58:42.002Z,12.47
2022-11-28T01:01:12.606Z,12.60
2022-11-28T01:03:39.746Z,11.93
2022-11-28T01:06:07.891Z,11.77
2022-11-28T01:08:34.901Z,11.57
2022-11-28T01:11:02.271Z,12.17
2022-11-28T01:13:28.981Z,12.73
2022-11-28T01:15:55.885Z,12.50
2022-11-28T01:18:22.763Z,12.37
2022-11-28T01:20:49.542Z,13.90
2022-11-28T01:23:18.451Z,12.33
2022-11-28T01:25:45.207Z,13.10
2022-11-28T01:28:11.884Z,12.53
2022-11-28T01:30:38.639Z,13.90
2022-11-28T01:33:05.400Z,13.73
2022-11-28T01:35:32.069Z,14.40
2022-11-28T01:37:58.891Z,14.67
2022-11-28T01:40:25.706Z,13.97
2022-11-28T01:42:52.543Z,13.77
2022-11-28T01:45:31.427Z,16.13
2022-11-28T01:48:02.624Z,13.77
2022-11-28T01:50:32.874Z,14.37
2022-11-28T01:53:04.644Z,15.23
2022-11-28T01:55:39.075Z,14.80
2022-11-28T01:58:06.569Z,14.40
2022-11-28T02:00:34.734Z,14.70
2022-11-28T02:03:14.994Z,16.30
2022-11-28T02:05:41.915Z,15.90
2022-11-28T02:08:09.910Z,16.07
2022-11-28T02:10:47.023Z,15.10
2022-11-28T02:13:38.571Z,15.37
2022-11-28T02:16:36.423Z,15.23
2022-11-28T02:19:24.940Z,14.00
2022-11-28T02:21:51.682Z,14.20
2022-11-28T02:24:37.134Z,15.27
2022-11-28T02:27:32.200Z,14.63
2022-11-28T02:30:36.626Z,14.33
2022-11-28T02:33:14.634Z,14.43
2022-11-28T02:36:10.521Z,14.90
2022-11-28T02:38:57.303Z,15.53
2022-11-28T02:41:39.506Z,13.40
2022-11-28T02:44:18.571Z,12.90
2022-11-28T02:47:02.966Z,14.60
2022-11-28T02:49:47.689Z,15.30
2022-11-28T02:52:23.580Z,13.07
2022-11-28T02:54:52.158Z,12.60
2022-11-28T02:57:18.839Z,13.67
2022-11-28T02:59:48.760Z,12.60
2022-11-28T03:02:15.525Z,12.80
2022-11-28T03:04:51.300Z,13.80
2022-11-28T03:07:53.460Z,12.77
2022-11-28T03:10:33.000Z,12.20
2022-11-28T03:13:08.495Z,12.83
2022-11-28T03:15:50.092Z,12.90
2022-11-28T03:18:43.471Z,11.80
2022-11-28T03:21:17.836Z,13.43
2022-11-28T03:23:51.967Z,12.27
2022-11-28T03:26:30.557Z,12.50
2022-11-28T03:29:16.600Z,13.03
2022-11-28T03:31:49.673Z,12.70
2022-11-28T03:34:20.287Z,13.50
2022-11-28T03:36:56.047Z,12.87
2022-11-28T03:39:28.277Z,13.17
2022-11-28T03:42:18.261Z,13.50
2022-11-28T03:45:01.427Z,13.70
2022-11-28T03:47:44.527Z,13.73
2022-11-28T03:50:26.079Z,13.13
2022-11-28T03:53:03.855Z,13.40
2022-11-28T03:55:48.978Z,12.77
2022-11-28T03:58:34.322Z,12.60
2022-11-28T04:01:28.938Z,13.03
2022-11-28T04:03:55.620Z,13.07
2022-11-28T04:06:30.040Z,12.87
2022-11-28T04:09:03.688Z,12.57
2022-11-28T04:11:54.264Z,12.87
2022-11-28T04:14:32.274Z,12.43
2022-11-28T04:17:06.972Z,11.40
2022-11-28T04:20:13.275Z,11.43
2022-11-28T04:22:51.299Z,11.60
2022-11-28T04:25:22.179Z,11.63
2022-11-28T04:27:54.882Z,11.40
2022-11-28T04:30:21.924Z,11.77
2022-11-28T04:32:54.378Z,11.20
2022-11-28T04:35:27.323Z,11.97
2022-11-28T04:37:55.314Z,11.73
2022-11-28T04:40:25.436Z,11.27
2022-11-28T04:42:56.579Z,12.13
2022-11-28T04:45:37.877Z,11.87
2022-11-28T04:48:05.322Z,13.17
2022-11-28T04:50:42.433Z,12.63
2022-11-28T04:53:28.182Z,12.87
2022-11-28T04:56:06.904Z,12.83
2022-11-28T04:58:46.437Z,12.67
2022-11-28T05:01:20.494Z,12.83
2022-11-28T05:03:47.459Z,12.17
2022-11-28T05:06:25.361Z,14.37
2022-11-28T05:08:52.120Z,12.77
2022-11-28T05:11:19.112Z,13.40
2022-11-28T05:13:45.874Z,12.97
2022-11-28T05:16:13.287Z,13.57
2022-11-28T05:18:40.120Z,13.53
2022-11-28T05:21:08.996Z,13.03
2022-11-28T05:23:40.030Z,13.00
2022-11-28T05:26:13.379Z,12.60
2022-11-28T05:28:42.830Z,12.83
2022-11-28T05:31:09.652Z,13.13
2022-11-28T05:33:36.362Z,12.63
2022-11-28T05:36:13.853Z,12.63
2022-11-28T05:38:41.217Z,13.10
2022-11-28T05:41:08.327Z,11.90
2022-11-28T05:43:35.510Z,11.90
2022-11-28T05:46:04.960Z,12.00
2022-11-28T05:48:31.674Z,12.67
2022-11-28T05:50:58.403Z,12.53
2022-11-28T05:53:25.923Z,11.57
2022-11-28T05:55:52.649Z,11.83
2022-11-28T05:58:19.392Z,11.67
2022-11-28T06:00:46.134Z,12.17
2022-11-28T06:03:12.836Z,11.37
2022-11-28T06:05:44.076Z,11.03
2022-11-28T06:08:16.460Z,11.20
2022-11-28T06:10:46.171Z,11.00
2022-11-28T06:13:12.889Z,10.67
2022-11-28T06:15:44.414Z,10.73
2022-11-28T06:18:11.159Z,10.67
2022-11-28T06:20:37.870Z,11.00
2022-11-28T06:23:04.546Z,10.60
2022-11-28T06:25:31.304Z,9.70
2022-11-28T06:28:00.942Z,9.73
2022-11-28T06:30:27.885Z,9.43
2022-11-28T06:32:54.599Z,8.87
2022-11-28T06:35:21.284Z,8.90
2022-11-28T06:37:49.110Z,8.70
2022-11-28T06:40:15.993Z,8.40
2022-11-28T06:42:42.711Z,8.37
2022-11-28T06:45:09.818Z,9.27
2022-11-28T06:47:36.553Z,8.07
2022-11-28T06:50:03.752Z,8.30
2022-11-28T06:52:30.439Z,7.67
2022-11-28T06:54:59.537Z,10.43
2022-11-28T06:57:26.652Z,8.60
2022-11-28T06:59:53.509Z,8.00
2022-11-28T07:02:20.290Z,7.57
2022-11-28T07:04:46.992Z,7.53
2022-11-28T07:07:16.462Z,7.93
2022-11-28T07:09:43.892Z,8.00
2022-11-28T07:12:10.898Z,8.20
2022-11-28T07:14:38.244Z,7.57
2022-11-28T07:17:05.135Z,8.40
2022-11-28T07:19:31.908Z,7.33
2022-11-28T07:21:58.661Z,10.00
2022-11-28T07:24:25.348Z,8.93
2022-11-28T07:26:52.190Z,8.57
2022-11-28T07:29:19.619Z,8.90
2022-11-28T07:31:46.397Z,8.77
2022-11-28T07:34:13.316Z,9.20
2022-11-28T07:36:40.167Z,8.87
2022-11-28T07:39:08.957Z,8.93
2022-11-28T07:41:36.108Z,8.67
2022-11-28T07:44:04.016Z,9.57
2022-11-28T07:46:32.117Z,9.83
2022-11-28T07:48:59.461Z,10.00
2022-11-28T07:51:30.117Z,10.00
2022-11-28T07:53:57.019Z,9.93
2022-11-28T07:56:35.079Z,9.87
2022-11-28T07:59:11.425Z,9.93
2022-11-28T08:01:38.535Z,10.37
2022-11-28T08:04:06.883Z,9.70
2022-11-28T08:06:37.367Z,9.93
2022-11-28T08:09:04.650Z,10.63
2022-11-28T08:11:32.662Z,10.10
2022-11-28T08:13:59.811Z,10.43
2022-11-28T08:16:29.089Z,12.20
2022-11-28T08:18:56.576Z,11.00
2022-11-28T08:21:26.596Z,10.73
2022-11-28T08:23:54.985Z,10.20
2022-11-28T08:26:27.487Z,11.80
2022-11-28T08:28:57.921Z,11.37
2022-11-28T08:31:28.553Z,12.07
2022-11-28T08:33:57.738Z,11.87
2022-11-28T08:36:24.469Z,12.30
2022-11-28T08:39:09.860Z,11.60
2022-11-28T08:41:38.404Z,10.83
2022-11-28T08:44:05.191Z,11.93
2022-11-28T08:46:32.599Z,11.63
2022-11-28T08:48:59.273Z,11.77
2022-11-28T08:51:25.950Z,11.83
2022-11-28T08:53:59.091Z,12.13
2022-11-28T08:56:26.373Z,12.27
2022-11-28T08:58:53.056Z,11.47
2022-11-28T09:01:22.752Z,11.90
2022-11-28T09:03:50.355Z,11.67
2022-11-28T09:06:17.728Z,11.97
2022-11-28T09:08:45.227Z,11.83
2022-11-28T09:11:15.232Z,12.00
2022-11-28T09:13:42.337Z,10.33
2022-11-28T09:16:09.462Z,11.73
2022-11-28T09:18:36.721Z,10.60
2022-11-28T09:21:11.849Z,11.80
2022-11-28T09:23:41.028Z,11.57
2022-11-28T09:26:12.435Z,11.23
2022-11-28T09:28:39.256Z,11.50
2022-11-28T09:31:07.684Z,11.17
2022-11-28T09:33:35.274Z,11.07
2022-11-28T09:36:07.844Z,11.20
2022-11-28T09:38:34.910Z,10.73
2022-11-28T09:41:03.090Z,10.83
2022-11-28T09:43:44.261Z,11.90
2022-11-28T09:46:18.203Z,11.90
2022-11-28T09:48:51.063Z,11.93
2022-11-28T09:51:37.763Z,12.63
2022-11-28T09:54:10.120Z,11.07
2022-11-28T09:56:37.079Z,12.43
2022-11-28T09:59:04.523Z,11.23
2022-11-28T10:02:02.544Z,12.43
2022-11-28T10:04:46.433Z,11.30
2022-11-28T10:07:36.734Z,11.03
2022-11-28T10:10:21.912Z,9.77
2022-11-28T10:13:06.953Z,9.87
2022-11-28T10:15:44.721Z,10.53
2022-11-28T10:18:35.729Z,9.97
2022-11-28T10:21:10.293Z,9.67
2022-11-28T10:23:45.419Z,9.30
2022-11-28T10:26:36.140Z,9.17
2022-11-28T10:29:13.976Z,9.30
2022-11-28T10:31:44.165Z,9.20
2022-11-28T10:34:31.280Z,8.70
2022-11-28T10:37:21.943Z,8.67
2022-11-28T10:39:48.930Z,7.93
2022-11-28T10:42:26.042Z,8.00
2022-11-28T10:45:04.706Z,7.33
2022-11-28T10:47:40.666Z,7.80
2022-11-28T10:50:21.541Z,7.90
2022-11-28T10:52:58.601Z,7.87
2022-11-28T10:55:58.233Z,7.53
2022-11-28T10:58:37.208Z,7.63
2022-11-28T11:01:04.384Z,7.30
2022-11-28T11:03:35.898Z,7.90
2022-11-28T11:06:02.910Z,7.63
2022-11-28T11:08:35.182Z,7.73
2022-11-28T11:11:19.642Z,8.07
2022-11-28T11:14:05.670Z,7.70
2022-11-28T11:16:51.707Z,8.40
2022-11-28T11:19:34.165Z,8.03
2022-11-28T11:22:12.472Z,7.53
2022-11-28T11:24:39.169Z,7.50
2022-11-28T11:27:16.419Z,8.40
2022-11-28T11:29:45.064Z,9.13
2022-11-28T11:32:27.857Z,8.50
2022-11-28T11:34:56.779Z,9.33
2022-11-28T11:37:29.350Z,9.57
2022-11-28T11:39:56.026Z,9.57
2022-11-28T11:42:25.445Z,9.63
2022-11-28T11:44:52.707Z,10.50
2022-11-28T11:47:19.742Z,10.77
2022-11-28T11:49:49.715Z,10.70
2022-11-28T11:52:25.193Z,10.40
2022-11-28T11:54:58.167Z,11.03
2022-11-28T11:57:33.068Z,11.20
2022-11-28T12:00:19.999Z,11.40
2022-11-28T12:02:55.772Z,12.47
2022-11-28T12:05:46.618Z,12.97
2022-11-28T12:08:34.485Z,12.27
2022-11-28T12:11:23.358Z,12.93
2022-11-28T12:13:51.312Z,13.20
2022-11-28T12:16:37.466Z,12.63
2022-11-28T12:19:28.531Z,13.60
2022-11-28T12:22:02.713Z,13.73
2022-11-28T12:24:56.719Z,14.10
2022-11-28T12:27:49.567Z,14.70
2022-11-28T12:30:54.539Z,14.50
2022-11-28T12:33:36.173Z,15.40
2022-11-28T12:36:18.818Z,16.37
2022-11-28T12:39:17.572Z,16.53
2022-11-28T12:42:05.922Z,16.57
2022-11-28T12:45:03.104Z,17.00
2022-11-28T12:48:01.723Z,16.77
2022-11-28T12:50:28.453Z,16.50
2022-11-28T12:53:27.034Z,17.17
2022-11-28T12:56:13.083Z,17.60
2022-11-28T12:58:46.081Z,18.50
2022-11-28T13:01:50.304Z,16.57
2022-11-28T13:04:42.637Z,16.93
2022-11-28T13:07:42.115Z,18.53
2022-11-28T13:10:29.066Z,16.23
2022-11-28T13:13:04.810Z,17.33
2022-11-28T13:16:09.521Z,17.97
2022-11-28T13:18:45.741Z,17.93
2022-11-28T13:21:19.645Z,18.93
2022-11-28T13:23:56.148Z,18.97
2022-11-28T13:26:40.953Z,17.60
2022-11-28T13:29:18.206Z,18.40
2022-11-28T13:32:12.624Z,17.10
2022-11-28T13:34:39.906Z,17.67
2022-11-28T13:40:34.075Z,18.03
2022-11-28T13:43:13.400Z,18.07
2022-11-28T13:49:05.971Z,17.10
2022-11-28T13:51:31.867Z,18.03
2022-11-28T13:54:17.504Z,17.57
2022-11-28T13:57:03.661Z,16.00
2022-11-28T13:59:31.269Z,18.37
2022-11-28T14:02:01.712Z,16.93
2022-11-28T14:04:29.712Z,16.73
2022-11-28T14:07:02.802Z,16.27
2022-11-28T14:09:53.602Z,16.30
2022-11-28T14:12:51.335Z,16.20
2022-11-28T14:15:30.436Z,14.77
2022-11-28T14:18:47.953Z,15.10
2022-11-28T14:21:25.316Z,15.17
2022-11-28T14:24:11.118Z,15.80
2022-11-28T14:26:40.495Z,16.23
2022-11-28T14:29:19.615Z,15.47
2022-11-28T14:32:13.589Z,16.00
2022-11-28T14:34:48.659Z,15.80
2022-11-28T14:37:21.517Z,15.10
2022-11-28T14:39:49.572Z,15.53
2022-11-28T14:42:36.889Z,14.97
2022-11-28T14:45:24.474Z,16.27
2022-11-28T14:48:14.857Z,16.73
2022-11-28T14:50:41.567Z,17.67
2022-11-28T14:53:37.808Z,17.37
2022-11-28T14:56:16.461Z,16.47
2022-11-28T14:58:51.049Z,17.77
2022-11-28T15:02:03.779Z,17.17
2022-11-28T15:04:42.650Z,17.53
2022-11-28T15:07:20.805Z,19.17
2022-11-28T15:10:18.068Z,17.73
2022-11-28T15:13:11.253Z,18.00
2022-11-28T15:15:50.984Z,18.87
2022-11-28T15:18:22.204Z,19.20
2022-11-28T15:20:55.266Z,18.90
2022-11-28T15:23:39.936Z,19.17
2022-11-28T15:26:07.060Z,19.87
2022-11-28T15:28:35.650Z,19.63
2022-11-28T15:31:05.662Z,19.87
2022-11-28T15:33:33.642Z,27.98
2022-11-28T15:36:03.033Z,23.80
2022-11-28T15:38:31.566Z,22.10
2022-11-28T15:40:59.533Z,21.90
2022-11-28T15:43:26.853Z,22.50
2022-11-28T15:46:00.385Z,22.40
2022-11-28T15:48:50.816Z,22.43
2022-11-28T15:51:30.284Z,22.13
2022-11-28T15:53:57.203Z,24.10
2022-11-28T15:56:24.166Z,23.60
2022-11-28T15:58:51.802Z,24.20
2022-11-28T16:01:26.948Z,23.23
2022-11-28T16:04:03.954Z,23.07
2022-11-28T16:06:36.313Z,24.47
2022-11-28T16:09:24.170Z,26.57
2022-11-28T16:11:53.385Z,25.73
2022-11-28T16:14:33.167Z,24.47
2022-11-28T16:17:03.071Z,25.50
2022-11-28T16:19:33.017Z,24.70
2022-11-28T16:22:09.333Z,25.23
2022-11-28T16:24:52.075Z,28.20
2022-11-28T16:27:30.187Z,27.47
2022-11-28T16:29:56.959Z,26.97
2022-11-28T16:32:31.901Z,27.50
2022-11-28T16:35:02.403Z,26.17
2022-11-28T16:37:30.888Z,26.67
2022-11-28T16:40:01.660Z,29.23
2022-11-28T16:42:28.531Z,28.13
2022-11-28T16:44:55.292Z,28.87
2022-11-28T16:47:31.115Z,30.90
2022-11-28T16:50:12.668Z,31.23
2022-11-28T16:52:47.944Z,30.23
2022-11-28T16:55:30.237Z,31.20
2022-11-28T16:58:13.887Z,30.97
2022-11-28T17:00:59.303Z,32.47
2022-11-28T17:03:46.626Z,33.07
2022-11-28T17:06:21.126Z,31.37
2022-11-28T17:08:47.922Z,35.33
2022-11-28T17:11:16.629Z,35.67
2022-11-28T17:13:43.426Z,38.90
2022-11-28T17:16:16.252Z,38.13
2022-11-28T17:18:43.785Z,36.80
2022-11-28T17:21:12.821Z,40.10
2022-11-28T17:23:40.958Z,41.63
2022-11-28T17:26:08.335Z,38.30
2022-11-28T17:28:35.183Z,36.47
2022-11-28T17:31:02.151Z,36.63
2022-11-28T17:33:31.534Z,34.63
2022-11-28T17:36:00.120Z,34.47
2022-11-28T17:38:28.198Z,34.83
2022-11-28T17:40:54.994Z,36.33
2022-11-28T17:43:22.278Z,36.90
2022-11-28T17:45:50.709Z,38.73
2022-11-28T17:48:18.490Z,34.67
2022-11-28T17:50:47.778Z,36.97
2022-11-28T17:53:18.012Z,34.97
2022-11-28T17:55:47.144Z,38.03
2022-11-28T17:58:23.579Z,42.60
2022-11-28T18:00:52.370Z,37.23
2022-11-28T18:03:22.420Z,36.37
2022-11-28T18:05:50.486Z,34.83
2022-11-28T18:08:21.918Z,35.83
2022-11-28T18:10:49.533Z,37.43
2022-11-28T18:13:17.509Z,37.10
2022-11-28T18:15:47.101Z,34.67
2022-11-28T18:18:15.527Z,35.90
2022-11-28T18:20:42.216Z,37.07
2022-11-28T18:23:11.032Z,36.90
2022-11-28T18:25:41.644Z,37.53
2022-11-28T18:28:08.396Z,37.17
2022-11-28T18:30:35.100Z,36.63
2022-11-28T18:33:01.872Z,39.23
2022-11-28T18:35:28.530Z,38.33
2022-11-28T18:37:55.267Z,38.83
2022-11-28T18:40:22.147Z,40.17
2022-11-28T18:42:48.944Z,41.03
2022-11-28T18:45:15.695Z,37.27
2022-11-28T18:47:42.472Z,39.53
2022-11-28T18:50:09.626Z,40.97
2022-11-28T18:52:36.597Z,40.33
2022-11-28T18:55:04.081Z,42.53
2022-11-28T18:57:33.547Z,39.10
2022-11-28T19:00:01.263Z,40.67
2022-11-28T19:02:29.075Z,38.17
2022-11-28T19:04:56.077Z,38.40
2022-11-28T19:07:24.521Z,37.43
2022-11-28T19:09:51.878Z,37.57
2022-11-28T19:12:19.742Z,37.80
2022-11-28T19:14:46.991Z,39.90
2022-11-28T19:17:13.774Z,41.53
2022-11-28T19:19:41.375Z,40.10
2022-11-28T19:22:08.337Z,38.63
2022-11-28T19:24:37.241Z,41.57
2022-11-28T19:27:05.701Z,40.53
2022-11-28T19:29:35.117Z,39.97
2022-11-28T19:32:01.942Z,42.03
2022-11-28T19:34:29.075Z,43.47
2022-11-28T19:36:55.873Z,41.43
2022-11-28T19:39:24.952Z,41.67
2022-11-28T19:41:53.038Z,43.73
2022-11-28T19:44:21.102Z,43.53
2022-11-28T19:46:48.130Z,39.33
2022-11-28T19:49:20.574Z,40.67
2022-11-28T19:51:48.115Z,41.83
2022-11-28T19:54:16.332Z,39.53
2022-11-28T19:56:43.532Z,36.20
2022-11-28T19:59:11.144Z,38.57
2022-11-28T20:01:38.960Z,37.70
2022-11-28T20:04:06.204Z,38.57
2022-11-28T20:06:32.924Z,34.53
2022-11-28T20:09:03.382Z,36.93
2022-11-28T20:11:33.864Z,38.93
2022-11-28T20:14:20.934Z,37.20
2022-11-28T20:16:47.879Z,36.40
2022-11-28T20:19:14.981Z,36.73
2022-11-28T20:21:41.836Z,35.20
2022-11-28T20:24:09.041Z,36.40
2022-11-28T20:26:41.138Z,39.77
2022-11-28T20:29:09.155Z,38.13
2022-11-28T20:31:38.225Z,39.67
2022-11-28T20:34:06.318Z,42.23
2022-11-28T20:36:33.217Z,46.50
2022-11-28T20:39:00.276Z,45.57
2022-11-28T20:41:28.362Z,47.50
2022-11-28T20:43:55.146Z,46.37
2022-11-28T20:46:27.052Z,45.37
2022-11-28T20:48:54.695Z,45.03
2022-11-28T20:51:24.927Z,44.17
2022-11-28T20:53:52.806Z,46.23
2022-11-28T20:56:22.194Z,43.13
2022-11-28T20:58:49.407Z,41.93
2022-11-28T21:01:18.395Z,45.60
2022-11-28T21:03:45.445Z,41.03
2022-11-28T21:06:12.488Z,42.97
2022-11-28T21:08:39.972Z,41.03
2022-11-28T21:11:09.385Z,39.20
2022-11-28T21:13:36.375Z,40.27
2022-11-28T21:16:08.473Z,36.20
2022-11-28T21:18:36.685Z,37.90
2022-11-28T21:21:22.400Z,40.07
2022-11-28T21:23:49.220Z,33.90
2022-11-28T21:26:19.807Z,35.17
2022-11-28T21:28:48.265Z,32.80
2022-11-28T21:31:18.312Z,35.27
2022-11-28T21:33:52.246Z,30.03
2022-11-28T21:36:19.235Z,29.97
2022-11-28T21:38:50.818Z,33.20
2022-11-28T21:41:18.263Z,36.03
2022-11-28T21:43:44.974Z,34.87
2022-11-28T21:46:12.263Z,32.53
2022-11-28T21:48:39.868Z,31.77
2022-11-28T21:51:07.011Z,32.60
2022-11-28T21:53:34.463Z,33.30
2022-11-28T21:56:02.774Z,33.70
2022-11-28T21:58:30.741Z,32.37
2022-11-28T22:00:58.921Z,30.03
2022-11-28T22:03:26.894Z,29.73
2022-11-28T22:06:00.899Z,31.57
2022-11-28T22:08:28.367Z,31.07
2022-11-28T22:10:55.314Z,32.83
2022-11-28T22:13:22.070Z,28.77
2022-11-28T22:15:48.865Z,33.30
2022-11-28T22:18:15.593Z,34.43
2022-11-28T22:20:45.747Z,30.80
2022-11-28T22:23:14.646Z,30.80
2022-11-28T22:25:51.113Z,32.10
2022-11-28T22:28:17.947Z,31.43
2022-11-28T22:30:44.651Z,30.50
2022-11-28T22:33:11.396Z,27.77
2022-11-28T22:35:38.237Z,27.67
2022-11-28T22:38:04.924Z,31.50
2022-11-28T22:40:31.660Z,31.17
2022-11-28T22:42:58.471Z,31.13
2022-11-28T22:45:25.150Z,32.17
2022-11-28T22:47:51.825Z,33.00
2022-11-28T22:50:18.763Z,29.73
2022-11-28T22:52:45.488Z,31.57
2022-11-28T22:55:12.389Z,27.67
2022-11-28T22:57:39.164Z,28.33
2022-11-28T23:00:08.851Z,26.57
2022-11-28T23:02:35.958Z,27.00
2022-11-28T23:05:02.835Z,26.47
2022-11-28T23:07:29.539Z,28.57
2022-11-28T23:09:56.250Z,28.73
2022-11-28T23:12:23.299Z,30.27
2022-11-28T23:14:51.779Z,30.63
2022-11-28T23:17:18.507Z,29.30
2022-11-28T23:19:45.446Z,27.00
2022-11-28T23:22:12.123Z,27.50
2022-11-28T23:24:38.842Z,25.40
2022-11-28T23:27:05.566Z,25.73
2022-11-28T23:29:32.323Z,25.33
2022-11-28T23:31:59.056Z,25.50
2022-11-28T23:34:25.874Z,25.07
2022-11-28T23:36:52.556Z,25.57
2022-11-28T23:39:22.394Z,28.10
2022-11-28T23:41:50.011Z,30.37
2022-11-28T23:44:18.747Z,30.60
2022-11-28T23:46:46.270Z,30.37
2022-11-28T23:49:13.040Z,28.80
2022-11-28T23:51:40.578Z,27.93
2022-11-28T23:54:08.375Z,27.33
2022-11-28T23:56:36.698Z,27.30
2022-11-28T23:59:05.583Z,27.80
